createdAt,value
2023-01-30T00:01:17.987Z,52.51
2023-01-30T00:02:27.080Z,51.98
2023-01-30T00:03:35.759Z,52.24
2023-01-30T00:04:44.753Z,52.15
2023-01-30T00:05:54.312Z,51.99
2023-01-30T00:07:03.527Z,52.02
2023-01-30T00:08:12.397Z,51.94
2023-01-30T00:09:21.793Z,52.02
2023-01-30T00:10:30.829Z,51.86
2023-01-30T00:11:40.205Z,52.24
2023-01-30T00:12:48.765Z,52.42
2023-01-30T00:13:57.437Z,52.05
2023-01-30T00:15:08.656Z,52.32
2023-01-30T00:16:18.251Z,52.34
2023-01-30T00:17:29.147Z,52.51
2023-01-30T00:18:38.060Z,52.98
2023-01-30T00:19:46.613Z,53.11
2023-01-30T00:21:00.597Z,53.15
2023-01-30T00:22:09.193Z,53.06
2023-01-30T00:23:18.216Z,53.10
2023-01-30T00:24:26.833Z,52.76
2023-01-30T00:25:36.175Z,52.37
2023-01-30T00:26:46.274Z,52.55
2023-01-30T00:27:57.076Z,52.77
2023-01-30T00:29:06.645Z,52.68
2023-01-30T00:30:16.815Z,52.99
2023-01-30T00:31:25.793Z,53.19
2023-01-30T00:32:34.417Z,53.23
2023-01-30T00:33:43.624Z,53.33
2023-01-30T00:34:53.264Z,53.38
2023-01-30T00:37:17.920Z,53.50
2023-01-30T00:38:26.707Z,53.54
2023-01-30T00:39:35.726Z,53.53
2023-01-30T00:40:45.474Z,53.80
2023-01-30T00:42:13.227Z,53.57
2023-01-30T00:43:40.061Z,53.51
2023-01-30T00:45:09.075Z,53.13
2023-01-30T00:46:52.453Z,53.40
2023-01-30T00:48:03.043Z,53.50
2023-01-30T00:49:12.771Z,53.49
2023-01-30T00:50:21.650Z,53.82
2023-01-30T00:51:30.607Z,53.84
2023-01-30T00:52:41.344Z,53.75
2023-01-30T00:53:50.894Z,53.71
2023-01-30T00:55:01.342Z,53.41
2023-01-30T00:56:10.025Z,53.57
2023-01-30T00:57:19.144Z,53.31
2023-01-30T00:58:28.058Z,53.75
2023-01-30T00:59:37.101Z,53.75
2023-01-30T01:00:46.932Z,53.81
2023-01-30T01:01:56.185Z,53.94
2023-01-30T01:03:05.869Z,53.94
2023-01-30T01:04:15.271Z,53.19
2023-01-30T01:05:25.345Z,52.80
2023-01-30T01:06:34.689Z,53.01
2023-01-30T01:07:45.483Z,53.02
2023-01-30T01:08:54.815Z,53.41
2023-01-30T01:10:04.834Z,53.64
2023-01-30T01:11:15.795Z,52.99
2023-01-30T01:12:24.734Z,53.26
2023-01-30T01:13:34.452Z,53.28
2023-01-30T01:14:43.627Z,53.27
2023-01-30T01:15:53.920Z,53.64
2023-01-30T01:17:03.356Z,53.83
2023-01-30T01:18:12.663Z,53.30
2023-01-30T01:19:21.881Z,53.26
2023-01-30T01:20:32.484Z,53.60
2023-01-30T01:21:41.558Z,53.89
2023-01-30T01:22:53.408Z,54.02
2023-01-30T01:24:02.665Z,53.97
2023-01-30T01:25:13.019Z,54.07
2023-01-30T01:26:22.635Z,54.42
2023-01-30T01:27:32.493Z,53.65
2023-01-30T01:28:41.075Z,53.38
2023-01-30T01:29:52.130Z,53.59
2023-01-30T01:31:11.241Z,53.93
2023-01-30T01:33:37.111Z,53.90
2023-01-30T01:34:45.733Z,54.24
2023-01-30T01:35:58.435Z,53.65
2023-01-30T01:37:07.287Z,53.18
2023-01-30T01:38:18.188Z,53.38
2023-01-30T01:39:29.682Z,53.69
2023-01-30T01:40:57.555Z,53.78
2023-01-30T01:42:11.467Z,53.48
2023-01-30T01:43:24.436Z,53.43
2023-01-30T04:00:05.181Z,61.59
2023-01-30T04:02:31.420Z,60.81
2023-01-30T04:03:42.892Z,60.35
2023-01-30T04:04:53.726Z,60.01
2023-01-30T04:06:03.322Z,60.12
2023-01-30T04:07:13.673Z,59.50
2023-01-30T04:08:23.768Z,58.90
2023-01-30T04:09:33.338Z,59.07
2023-01-30T04:10:44.053Z,59.11
2023-01-30T04:11:53.719Z,58.95
2023-01-30T04:13:02.605Z,58.28
2023-01-30T04:14:19.921Z,58.16
2023-01-30T04:15:34.192Z,57.89
2023-01-30T04:17:02.057Z,58.06
2023-01-30T04:18:30.404Z,57.64
2023-01-30T04:21:02.108Z,57.46
2023-01-30T04:22:13.394Z,56.93
2023-01-30T04:23:22.829Z,56.64
2023-01-30T04:24:32.597Z,56.54
2023-01-30T04:25:41.233Z,56.25
2023-01-30T04:26:53.362Z,56.18
2023-01-30T04:28:03.329Z,56.79
2023-01-30T04:29:14.908Z,56.85
2023-01-30T04:30:24.772Z,56.60
2023-01-30T04:31:35.452Z,56.76
2023-01-30T04:32:46.329Z,56.60
2023-01-30T04:33:55.196Z,57.01
2023-01-30T04:35:05.132Z,57.23
2023-01-30T04:36:14.508Z,57.34
2023-01-30T04:37:24.593Z,56.51
2023-01-30T04:38:34.981Z,56.81
2023-01-30T04:39:43.942Z,56.77
2023-01-30T04:40:55.512Z,56.49
2023-01-30T04:42:04.612Z,56.51
2023-01-30T04:43:15.781Z,56.66
2023-01-30T04:44:35.555Z,56.90
2023-01-30T04:45:53.538Z,56.68
2023-01-30T04:47:02.388Z,56.56
2023-01-30T04:48:11.965Z,56.12
2023-01-30T04:49:21.812Z,56.12
2023-01-30T04:50:31.490Z,56.47
2023-01-30T04:51:40.148Z,56.53
2023-01-30T04:52:49.359Z,56.54
2023-01-30T04:55:14.029Z,56.53
2023-01-30T04:56:22.869Z,56.73
2023-01-30T04:57:32.683Z,56.23
2023-01-30T04:58:41.717Z,55.86
2023-01-30T04:59:52.268Z,56.09
2023-01-30T05:01:23.559Z,56.12
2023-01-30T05:02:33.629Z,56.02
2023-01-30T05:03:43.163Z,56.79
2023-01-30T05:06:07.961Z,56.77
2023-01-30T05:07:18.740Z,57.10
2023-01-30T05:08:27.640Z,56.97
2023-01-30T05:09:36.632Z,57.82
2023-01-30T05:10:45.155Z,58.02
2023-01-30T05:11:54.734Z,58.01
2023-01-30T05:14:21.006Z,58.44
2023-01-30T05:15:29.840Z,58.62
2023-01-30T05:16:38.908Z,58.06
2023-01-30T05:17:48.590Z,57.75
2023-01-30T05:18:57.610Z,58.06
2023-01-30T05:20:08.900Z,58.28
2023-01-30T05:21:22.078Z,58.25
2023-01-30T05:22:33.247Z,58.24
2023-01-30T05:23:42.941Z,57.92
2023-01-30T05:24:52.181Z,57.97
2023-01-30T05:26:01.603Z,58.21
2023-01-30T05:27:11.293Z,58.40
2023-01-30T05:28:20.366Z,58.77
2023-01-30T05:29:28.973Z,59.06
2023-01-30T05:30:38.870Z,58.78
2023-01-30T05:31:49.583Z,59.18
2023-01-30T05:32:58.714Z,59.31
2023-01-30T05:35:24.166Z,59.48
2023-01-30T05:36:34.834Z,59.21
2023-01-30T05:37:43.339Z,58.97
2023-01-30T05:38:52.393Z,58.83
2023-01-30T05:40:00.917Z,58.77
2023-01-30T05:41:12.316Z,58.53
2023-01-30T05:42:21.367Z,58.77
2023-01-30T05:43:31.977Z,59.17
2023-01-30T05:44:41.779Z,59.21
2023-01-30T05:45:56.232Z,59.16
2023-01-30T05:47:04.873Z,58.40
2023-01-30T05:48:13.851Z,58.47
2023-01-30T05:49:23.373Z,58.29
2023-01-30T05:50:34.428Z,58.59
2023-01-30T05:51:43.975Z,57.87
2023-01-30T05:52:53.105Z,58.11
2023-01-30T05:54:01.627Z,57.85
2023-01-30T05:55:10.243Z,57.69
2023-01-30T05:56:20.345Z,57.47
2023-01-30T05:57:29.365Z,57.37
2023-01-30T05:58:38.830Z,57.34
2023-01-30T06:01:19.225Z,57.73
2023-01-30T06:02:40.721Z,57.52
2023-01-30T06:07:20.811Z,57.44
2023-01-30T06:08:36.098Z,56.89
2023-01-30T06:09:54.421Z,56.99
2023-01-30T06:11:06.095Z,57.21
2023-01-30T06:12:14.762Z,57.35
2023-01-30T06:13:23.307Z,56.95
2023-01-30T06:14:32.911Z,56.86
2023-01-30T06:15:41.515Z,57.01
2023-01-30T06:16:51.237Z,57.05
2023-01-30T06:18:02.675Z,57.29
2023-01-30T06:19:13.080Z,57.51
2023-01-30T06:20:22.377Z,57.41
2023-01-30T06:21:35.535Z,57.28
2023-01-30T06:22:44.297Z,56.99
2023-01-30T06:23:55.157Z,57.73
2023-01-30T06:25:05.329Z,57.60
2023-01-30T06:26:15.077Z,57.30
2023-01-30T06:27:26.457Z,57.63
2023-01-30T06:28:36.737Z,57.74
2023-01-30T06:29:46.903Z,57.63
2023-01-30T06:30:56.180Z,57.35
2023-01-30T06:32:07.030Z,57.20
2023-01-30T06:33:21.677Z,56.45
2023-01-30T06:34:30.286Z,56.50
2023-01-30T06:36:58.175Z,57.44
2023-01-30T06:38:10.931Z,57.51
2023-01-30T06:39:19.307Z,57.53
2023-01-30T06:40:27.940Z,57.00
2023-01-30T06:41:43.625Z,57.25
2023-01-30T06:42:55.221Z,57.48
2023-01-30T06:44:04.567Z,58.04
2023-01-30T06:45:15.074Z,57.86
2023-01-30T06:46:23.830Z,57.97
2023-01-30T06:47:33.604Z,57.56
2023-01-30T06:49:58.904Z,57.91
2023-01-30T06:52:22.603Z,57.41
2023-01-30T06:53:32.401Z,57.61
2023-01-30T06:54:42.584Z,56.91
2023-01-30T06:55:51.896Z,57.28
2023-01-30T06:57:02.851Z,57.67
2023-01-30T06:58:15.164Z,57.39
2023-01-30T06:59:25.115Z,57.70
2023-01-30T07:00:35.442Z,57.96
2023-01-30T07:01:44.557Z,58.12
2023-01-30T07:02:53.163Z,58.19
2023-01-30T07:04:01.739Z,58.18
2023-01-30T07:05:11.536Z,58.15
2023-01-30T07:06:21.068Z,58.11
2023-01-30T07:07:31.212Z,58.55
2023-01-30T07:08:41.144Z,58.51
2023-01-30T07:10:06.927Z,57.95
2023-01-30T07:11:05.103Z,58.07
2023-01-30T07:12:13.440Z,58.41
2023-01-30T07:13:22.031Z,58.30
2023-01-30T07:14:32.391Z,58.47
2023-01-30T07:15:42.025Z,58.39
2023-01-30T07:16:52.010Z,58.43
2023-01-30T07:18:01.682Z,58.54
2023-01-30T07:19:10.600Z,58.89
2023-01-30T07:20:20.186Z,58.87
2023-01-30T07:21:28.725Z,58.75
2023-01-30T07:22:41.064Z,58.61
2023-01-30T07:23:49.581Z,58.99
2023-01-30T07:24:58.222Z,58.90
2023-01-30T07:26:08.028Z,58.95
2023-01-30T07:27:17.461Z,59.17
2023-01-30T07:28:26.435Z,59.49
2023-01-30T07:30:53.919Z,60.04
2023-01-30T07:32:04.075Z,60.08
2023-01-30T07:33:12.807Z,59.42
2023-01-30T07:34:21.747Z,59.47
2023-01-30T07:35:31.999Z,59.84
2023-01-30T07:36:41.430Z,59.76
2023-01-30T07:37:53.350Z,59.83
2023-01-30T07:39:02.657Z,60.15
2023-01-30T07:40:14.269Z,60.11
2023-01-30T07:41:23.976Z,60.28
2023-01-30T07:43:49.784Z,60.67
2023-01-30T07:44:59.690Z,60.63
2023-01-30T07:46:08.570Z,60.77
2023-01-30T07:48:33.944Z,61.08
2023-01-30T07:49:43.581Z,61.37
2023-01-30T07:50:57.424Z,61.69
2023-01-30T07:52:07.069Z,61.32
2023-01-30T07:53:18.297Z,61.51
2023-01-30T07:54:26.811Z,61.65
2023-01-30T07:55:35.834Z,61.50
2023-01-30T07:56:44.834Z,61.80
2023-01-30T07:57:56.382Z,61.53
2023-01-30T07:59:06.376Z,61.44
2023-01-30T08:00:16.983Z,61.44
2023-01-30T08:01:26.890Z,60.84
2023-01-30T08:03:51.452Z,61.03
2023-01-30T08:05:01.641Z,61.32
2023-01-30T08:06:10.690Z,60.88
2023-01-30T08:07:19.946Z,60.58
2023-01-30T08:08:28.772Z,60.63
2023-01-30T08:09:37.950Z,61.24
2023-01-30T08:10:49.447Z,61.58
2023-01-30T08:11:58.435Z,61.63
2023-01-30T08:13:07.098Z,61.82
2023-01-30T08:15:34.021Z,61.94
2023-01-30T08:18:00.221Z,61.88
2023-01-30T08:19:09.438Z,61.55
2023-01-30T08:20:18.854Z,61.45
2023-01-30T08:21:27.904Z,61.18
2023-01-30T08:22:36.903Z,61.01
2023-01-30T08:23:45.826Z,60.92
2023-01-30T08:24:55.418Z,61.37
2023-01-30T08:26:05.724Z,61.43
2023-01-30T08:28:31.461Z,61.70
2023-01-30T08:29:41.203Z,60.68
2023-01-30T08:30:52.054Z,60.94
2023-01-30T08:32:03.033Z,61.00
2023-01-30T08:33:12.087Z,61.38
2023-01-30T08:35:35.500Z,61.75
2023-01-30T08:36:47.074Z,61.47
2023-01-30T08:38:06.357Z,61.10
2023-01-30T08:39:22.606Z,61.73
2023-01-30T08:40:32.305Z,61.31
2023-01-30T08:41:42.920Z,61.67
2023-01-30T08:42:52.827Z,61.68
2023-01-30T08:44:01.367Z,61.35
2023-01-30T08:45:10.760Z,61.33
2023-01-30T08:46:24.063Z,61.71
2023-01-30T08:47:35.672Z,61.39
2023-01-30T08:48:49.962Z,60.75
2023-01-30T08:49:57.390Z,61.07
2023-01-30T08:51:07.214Z,61.48
2023-01-30T08:52:15.823Z,61.15
2023-01-30T08:54:46.491Z,60.61
2023-01-30T08:55:55.383Z,60.53
2023-01-30T08:57:06.331Z,60.61
2023-01-30T08:58:16.374Z,60.17
2023-01-30T08:59:24.893Z,60.94
2023-01-30T09:00:33.861Z,61.35
2023-01-30T09:01:45.369Z,61.07
2023-01-30T09:02:56.706Z,61.35
2023-01-30T09:04:05.687Z,60.31
2023-01-30T09:05:14.844Z,60.49
2023-01-30T09:06:26.087Z,60.26
2023-01-30T09:07:35.126Z,61.14
2023-01-30T09:08:44.124Z,61.06
2023-01-30T09:09:52.981Z,61.24
2023-01-30T09:11:05.517Z,61.84
2023-01-30T09:12:14.991Z,62.26
2023-01-30T09:13:24.043Z,61.92
2023-01-30T09:14:34.717Z,61.65
2023-01-30T09:15:45.217Z,61.94
2023-01-30T09:16:56.528Z,61.67
2023-01-30T09:18:06.325Z,61.40
2023-01-30T09:20:29.888Z,62.10
2023-01-30T09:21:38.853Z,62.38
2023-01-30T09:22:47.926Z,62.58
2023-01-30T09:23:57.594Z,62.76
2023-01-30T09:25:07.784Z,62.15
2023-01-30T09:26:17.066Z,62.04
2023-01-30T09:27:25.765Z,62.17
2023-01-30T09:28:36.663Z,61.90
2023-01-30T09:29:45.526Z,61.74
2023-01-30T09:30:58.167Z,61.52
2023-01-30T09:32:07.110Z,61.47
2023-01-30T09:34:39.439Z,61.60
2023-01-30T09:35:48.987Z,61.99
2023-01-30T09:37:05.103Z,61.00
2023-01-30T09:38:13.930Z,60.87
2023-01-30T09:39:23.404Z,60.71
2023-01-30T09:40:34.377Z,60.92
2023-01-30T13:51:48.113Z,67.05
2023-01-30T13:53:24.780Z,67.28
2023-01-30T13:54:54.074Z,66.78
2023-01-30T13:57:39.898Z,65.96
2023-01-30T13:58:52.161Z,65.84
2023-01-30T14:00:23.131Z,64.98
2023-01-30T14:01:50.474Z,65.08
2023-01-30T14:03:14.121Z,65.16
2023-01-30T14:04:44.783Z,64.82
2023-01-30T14:06:00.815Z,65.26
2023-01-30T14:07:22.719Z,65.31
2023-01-30T14:08:50.335Z,64.90
2023-01-30T14:10:11.978Z,63.93
2023-01-30T14:11:45.876Z,63.91
2023-01-30T14:12:55.823Z,63.82
2023-01-30T14:15:59.268Z,64.07
2023-01-30T14:17:11.865Z,64.07
2023-01-30T14:18:35.851Z,63.31
2023-01-30T14:20:04.965Z,63.69
2023-01-30T14:21:26.774Z,63.24
2023-01-30T14:22:55.338Z,63.51
2023-01-30T14:24:07.341Z,62.69
2023-01-30T14:26:51.807Z,62.80
2023-01-30T14:28:07.576Z,62.30
2023-01-30T14:29:41.769Z,62.77
2023-01-30T14:30:53.761Z,62.02
2023-01-30T14:32:03.731Z,62.75
2023-01-30T14:33:25.214Z,61.83
2023-01-30T14:34:40.660Z,62.01
2023-01-30T14:36:06.848Z,62.77
2023-01-30T14:39:01.117Z,61.84
2023-01-30T14:40:28.307Z,62.09
2023-01-30T14:41:38.093Z,62.04
2023-01-30T14:43:07.113Z,62.79
2023-01-30T14:44:19.756Z,62.75
2023-01-30T14:45:48.850Z,62.95
2023-01-30T14:46:58.637Z,62.68
2023-01-30T14:48:29.437Z,62.25
2023-01-30T14:49:40.119Z,62.31
2023-01-30T14:50:49.231Z,62.70
2023-01-30T14:51:59.618Z,62.76
2023-01-30T14:54:41.037Z,62.09
2023-01-30T14:55:41.517Z,62.41
2023-01-30T14:56:58.562Z,62.57
2023-01-30T14:59:30.208Z,62.38
2023-01-30T15:00:39.764Z,62.52
2023-01-30T15:02:15.440Z,62.47
2023-01-30T15:03:24.614Z,62.08
2023-01-30T15:05:04.727Z,62.27
2023-01-30T15:06:14.379Z,62.31
2023-01-30T15:09:03.050Z,61.76
2023-01-30T15:10:34.301Z,62.06
2023-01-30T15:11:45.135Z,61.98
2023-01-30T15:13:18.822Z,61.96
2023-01-30T15:14:31.945Z,62.45
2023-01-30T15:15:59.668Z,62.33
2023-01-30T15:18:43.003Z,62.34
2023-01-30T15:21:31.119Z,62.59
2023-01-30T15:22:44.376Z,62.19
2023-01-30T15:24:06.720Z,62.11
2023-01-30T15:25:22.052Z,62.15
2023-01-30T15:28:27.223Z,61.79
2023-01-30T15:29:57.150Z,61.65
2023-01-30T15:31:09.952Z,61.67
2023-01-30T15:32:25.490Z,62.19
2023-01-30T15:33:44.057Z,62.08
2023-01-30T15:34:56.222Z,61.88
2023-01-30T15:36:27.081Z,62.06
2023-01-30T15:37:49.608Z,61.92
2023-01-30T15:39:02.295Z,62.10
2023-01-30T15:41:42.937Z,61.93
2023-01-30T15:44:49.143Z,62.26
2023-01-30T15:47:27.187Z,62.17
2023-01-30T15:48:49.554Z,62.25
2023-01-30T15:50:07.481Z,62.31
2023-01-30T15:51:19.251Z,62.20
2023-01-30T15:54:01.449Z,61.83
2023-01-30T15:55:17.619Z,62.02
2023-01-30T16:39:37.991Z,61.50
2023-01-30T16:40:47.260Z,60.84
2023-01-30T16:41:57.254Z,60.64
2023-01-30T16:44:36.740Z,61.09
2023-01-30T16:45:55.367Z,60.50
2023-01-30T16:47:08.437Z,61.13
2023-01-30T16:48:23.696Z,60.67
2023-01-30T16:49:40.234Z,60.53
2023-01-30T16:52:28.580Z,61.36
2023-01-30T16:53:40.771Z,61.43
2023-01-30T16:54:54.193Z,61.06
2023-01-30T16:56:11.056Z,61.14
2023-01-30T16:58:55.099Z,60.97
2023-01-30T17:00:25.640Z,61.04
2023-01-30T17:01:38.813Z,61.29
2023-01-30T17:02:51.016Z,61.34
2023-01-30T17:04:02.640Z,61.39
2023-01-30T17:06:42.569Z,61.88
2023-01-30T17:07:53.286Z,62.28
2023-01-30T17:09:04.711Z,62.56
2023-01-30T17:11:59.324Z,62.38
2023-01-30T17:14:52.827Z,62.40
2023-01-30T17:16:19.693Z,62.00
2023-01-30T17:17:28.242Z,61.86
2023-01-30T17:18:36.853Z,62.27
2023-01-30T17:19:48.239Z,62.10
2023-01-30T17:20:57.403Z,62.17
2023-01-30T17:23:27.536Z,62.18
2023-01-30T17:24:36.192Z,62.15
2023-01-30T17:25:47.563Z,61.52
2023-01-30T17:28:23.274Z,61.61
2023-01-30T17:29:47.336Z,61.39
2023-01-30T17:30:45.309Z,61.60
2023-01-30T17:31:54.677Z,62.01
2023-01-30T17:33:04.565Z,61.93
2023-01-30T17:34:13.444Z,61.90
2023-01-30T17:35:23.319Z,62.06
2023-01-30T17:36:33.485Z,62.45
2023-01-30T17:37:45.254Z,62.25
2023-01-30T17:38:55.016Z,61.60
2023-01-30T17:41:31.980Z,61.75
2023-01-30T17:42:40.880Z,61.93
2023-01-30T17:43:51.051Z,61.78
2023-01-30T17:44:59.631Z,62.39
2023-01-30T17:46:09.667Z,62.40
2023-01-30T17:47:18.285Z,62.31
2023-01-30T17:48:27.808Z,62.03
2023-01-30T17:49:37.766Z,62.41
2023-01-30T17:50:46.436Z,62.40
2023-01-30T17:53:11.007Z,62.46
2023-01-30T17:54:20.383Z,62.03
2023-01-30T17:55:29.985Z,61.60
2023-01-30T17:56:41.601Z,61.48
2023-01-30T17:57:51.338Z,61.60
2023-01-30T17:59:01.116Z,61.82
2023-01-30T18:00:17.784Z,61.19
2023-01-30T18:01:26.833Z,61.92
2023-01-30T18:02:35.873Z,61.77
2023-01-30T18:03:45.184Z,62.21
2023-01-30T18:04:54.403Z,62.31
2023-01-30T18:06:03.507Z,62.30
2023-01-30T22:40:23.249Z,80.60
2023-01-30T22:41:36.239Z,79.97
2023-01-30T22:42:48.375Z,79.17
2023-01-30T22:44:00.541Z,78.42
2023-01-30T22:45:10.341Z,78.55
2023-01-30T22:46:20.533Z,78.08
2023-01-30T22:47:30.051Z,76.64
2023-01-30T22:48:40.404Z,75.76
2023-01-30T22:49:50.057Z,75.69
2023-01-30T22:51:14.517Z,74.93
2023-01-30T22:52:23.707Z,74.82
2023-01-30T22:53:40.620Z,74.19
2023-01-30T22:54:50.323Z,73.94
2023-01-30T22:56:04.061Z,73.07
2023-01-30T22:57:12.562Z,72.98
2023-01-30T22:58:22.848Z,72.99
2023-01-30T22:59:32.791Z,72.57
2023-01-30T23:00:42.685Z,71.55
2023-01-30T23:01:52.186Z,70.94
2023-01-30T23:03:01.238Z,70.81
2023-01-30T23:05:31.801Z,69.78
2023-01-30T23:06:42.397Z,69.59
2023-01-30T23:07:52.093Z,68.35
2023-01-30T23:09:01.595Z,68.26
2023-01-30T23:10:11.231Z,67.30
2023-01-30T23:11:23.527Z,68.88
2023-01-30T23:12:51.920Z,69.24
2023-01-30T23:14:07.636Z,69.10
2023-01-30T23:15:16.511Z,68.77
2023-01-30T23:16:27.306Z,69.86
2023-01-30T23:17:54.200Z,70.17
2023-01-30T23:19:04.930Z,70.38
2023-01-30T23:20:14.926Z,68.91
2023-01-30T23:22:43.311Z,69.24
2023-01-30T23:23:55.650Z,69.79
2023-01-30T23:25:05.276Z,69.98
2023-01-30T23:26:15.297Z,70.08
2023-01-30T23:27:24.652Z,69.46
2023-01-30T23:28:34.719Z,69.58
2023-01-30T23:29:43.678Z,69.53
2023-01-30T23:30:53.421Z,70.14
2023-01-30T23:32:03.841Z,68.58
2023-01-30T23:33:13.542Z,68.91
2023-01-30T23:34:23.932Z,69.52
2023-01-30T23:35:36.852Z,70.26
2023-01-30T23:36:47.615Z,69.55
2023-01-30T23:38:15.578Z,69.33
2023-01-30T23:39:24.491Z,70.10
2023-01-30T23:40:33.664Z,70.54
2023-01-30T23:41:43.208Z,69.67
2023-01-30T23:42:52.330Z,69.82
2023-01-30T23:44:02.009Z,69.71
2023-01-30T23:45:11.441Z,70.23
